Weather at Vali Ranch Heliport

Public forecast

Using degrees Celsius for public forecast. Weather courtesy of forecast.io.

Closest aviation weather report (METAR) to Vali Ranch Heliport

Closest report is Priština Adem Jashari International Airport, 22.3 nm (41.4 km) W.

2022/11/27 09:30 (retrieved 9 minutes ago)

BKPR 270930Z 35007KT 9999 FEW030 BKN090 04/01 Q1027 NOSIG

Closest aviation forecast (TAF) to Vali Ranch Heliport

Closest forecast is Priština Adem Jashari International Airport, 22.3 nm (41.4 km) W.

2022/11/27 06:00 (retrieved 4 hours ago)

TAF BKPR 270530Z 2706/2806 02006KT 9999 SCT040 TEMPO 2712/2718 5000 -RA BKN012 PROB40 TEMPO 2714/2718 3000 -SNRA PROB40 TEMPO 2718/2804 4000 -SN BKN008